Time;durP1;ratioP1;P1;durP2;ratioP2;P2;SDS_P1;SDS_P2;PMS_P1;PMS_P2;Temp;Humidity;BMP_temperature;BMP_pressure;BME280_temperature;BME280_humidity;BME280_pressure;Samples;Min_cycle;Max_cycle;Signal;HPM_P1;HPM_P2
2022/04/08 00:03:48;;;;;;;8.43;2.40;;;;;;;7.23;85.49;97503.86;3536010;80;98442;-89
2022/04/08 00:08:50;;;;;;;8.28;1.60;;;;;;;7.20;85.30;97516.25;3545430;80;98580;-88
2022/04/08 00:13:53;;;;;;;5.40;1.90;;;;;;;7.14;85.31;97510.50;3562101;80;98361;-95
2022/04/08 00:18:57;;;;;;;6.37;1.50;;;;;;;7.11;85.20;97509.22;3525745;80;98612;-89
2022/04/08 00:23:58;;;;;;;4.87;1.77;;;;;;;7.06;85.07;97506.98;3509731;80;99171;-89
2022/04/08 00:29:04;;;;;;;7.07;2.00;;;;;;;7.03;84.89;97495.55;3507846;80;98630;-90
2022/04/08 00:34:05;;;;;;;7.95;1.67;;;;;;;6.99;84.75;97490.73;3480839;80;98617;-90
2022/04/08 00:39:06;;;;;;;3.97;1.33;;;;;;;6.95;84.58;97499.02;3536976;80;98582;-88
2022/04/08 00:44:11;;;;;;;6.47;1.60;;;;;;;6.93;84.38;97496.54;3449507;81;98386;-95
2022/04/08 00:49:12;;;;;;;6.35;1.75;;;;;;;6.90;84.07;97507.72;3502445;81;98909;-90
2022/04/08 00:54:14;;;;;;;9.33;2.08;;;;;;;6.90;83.22;97521.38;3544529;81;98734;-90
2022/04/08 00:59:19;;;;;;;7.42;2.27;;;;;;;6.95;83.05;97511.91;3573234;80;98392;-90
2022/04/08 01:04:23;;;;;;;6.25;2.27;;;;;;;6.96;82.18;97507.39;3498059;80;98135;-89
2022/04/08 01:09:26;;;;;;;12.05;1.70;;;;;;;7.03;81.28;97507.23;3538983;79;99035;-86
2022/04/08 01:14:31;;;;;;;5.12;1.20;;;;;;;7.13;80.64;97507.60;3548886;80;98666;-96
2022/04/08 01:19:32;;;;;;;5.83;1.13;;;;;;;7.21;80.35;97502.75;3618120;79;98398;-89
2022/04/08 01:24:36;;;;;;;3.63;1.00;;;;;;;7.31;79.32;97501.74;3529756;80;99380;-90
2022/04/08 01:29:45;;;;;;;5.97;1.07;;;;;;;7.37;79.10;97498.67;3574498;80;98665;-91
2022/04/08 01:34:48;;;;;;;6.53;1.10;;;;;;;7.39;78.93;97490.80;3543714;79;98478;-89
2022/04/08 01:39:49;;;;;;;6.58;1.95;;;;;;;7.42;78.59;97492.08;3545561;81;98377;-89
2022/04/08 01:44:56;;;;;;;6.55;1.15;;;;;;;7.46;78.13;97494.14;3535596;81;98512;-92
2022/04/08 01:49:59;;;;;;;4.13;1.23;;;;;;;7.39;77.68;97466.17;3526820;81;106702;-96
2022/04/08 01:55:05;;;;;;;6.93;0.77;;;;;;;7.51;77.80;97500.47;3509939;81;98626;-96
2022/04/08 02:00:06;;;;;;;7.27;1.10;;;;;;;7.52;77.37;97495.16;3498470;81;102019;-92
2022/04/08 02:05:08;;;;;;;5.07;1.30;;;;;;;7.56;76.69;97506.02;3492356;81;98812;-94
2022/04/08 02:10:10;;;;;;;6.83;1.40;;;;;;;7.56;77.73;97503.28;3544680;81;98320;-90
2022/04/08 02:15:28;;;;;;;6.97;1.37;;;;;;;7.52;77.85;97517.67;3640923;78;98554;-92
2022/04/08 02:20:33;;;;;;;5.45;1.37;;;;;;;7.50;78.30;97516.72;3605965;79;98315;-87
2022/04/08 02:25:36;;;;;;;6.28;1.17;;;;;;;7.47;78.81;97525.02;3614100;79;99031;-92
2022/04/08 02:30:44;;;;;;;5.80;1.70;;;;;;;7.43;78.73;97522.36;3552046;80;98327;-94
2022/04/08 02:35:48;;;;;;;6.27;1.70;;;;;;;7.43;78.62;97540.73;3602020;78;98072;-89
2022/04/08 02:40:53;;;;;;;4.40;1.20;;;;;;;7.40;79.95;97538.25;3569021;80;98353;-96
2022/04/08 02:45:53;;;;;;;4.58;1.67;;;;;;;7.33;80.20;97547.98;3579312;79;98702;-90
2022/04/08 02:50:54;;;;;;;4.33;1.20;;;;;;;7.29;80.43;97536.34;3608897;79;99240;-87
2022/04/08 02:56:00;;;;;;;4.97;1.27;;;;;;;7.26;80.72;97547.37;3579842;78;98410;-88
2022/04/08 03:01:01;;;;;;;4.37;1.00;;;;;;;7.18;81.04;97539.91;3646031;78;98182;-92
2022/04/08 03:06:08;;;;;;;7.73;1.63;;;;;;;7.19;80.94;97552.39;3613610;79;99273;-94
2022/04/08 03:11:13;;;;;;;6.30;1.72;;;;;;;7.20;81.09;97582.64;3622451;78;106243;-88
2022/04/08 03:16:14;;;;;;;4.78;1.15;;;;;;;7.19;81.58;97578.98;3646964;78;98562;-87
2022/04/08 03:21:19;;;;;;;4.67;1.00;;;;;;;7.14;82.31;97605.45;3656077;78;98604;-86
2022/04/08 03:26:22;;;;;;;5.15;1.25;;;;;;;7.10;82.80;97612.95;3609946;79;98335;-93
2022/04/08 03:31:27;;;;;;;3.90;1.30;;;;;;;7.03;83.29;97630.26;3645510;78;98417;-93
2022/04/08 03:36:28;;;;;;;4.05;1.27;;;;;;;6.94;83.97;97637.48;3605011;78;99282;-94
2022/04/08 03:41:33;;;;;;;4.20;1.15;;;;;;;6.89;84.32;97655.73;3647309;77;99304;-90
2022/04/08 03:46:35;;;;;;;2.92;1.10;;;;;;;6.85;84.59;97664.59;3628727;78;98392;-90
2022/04/08 03:51:36;;;;;;;1.45;0.75;;;;;;;6.80;84.88;97678.16;3635106;78;98751;-91
2022/04/08 03:56:42;;;;;;;2.87;1.10;;;;;;;6.80;84.92;97691.82;3620439;78;98413;-87
2022/04/08 04:01:42;;;;;;;4.63;1.53;;;;;;;6.81;85.26;97709.76;3633047;78;98276;-88
2022/04/08 04:06:51;;;;;;;3.30;1.40;;;;;;;6.76;85.95;97728.00;3682457;77;98424;-88
2022/04/08 04:11:53;;;;;;;4.47;1.10;;;;;;;6.73;85.90;97736.27;3665339;78;98253;-84
2022/04/08 04:16:58;;;;;;;3.37;0.97;;;;;;;6.69;85.88;97748.62;3606435;78;98399;-89
2022/04/08 04:22:04;;;;;;;2.42;0.93;;;;;;;6.69;86.07;97762.28;3622478;78;98931;-90
2022/04/08 04:27:05;;;;;;;4.47;1.67;;;;;;;6.68;86.33;97760.75;3696210;77;98359;-88
2022/04/08 04:32:07;;;;;;;5.83;1.77;;;;;;;6.68;86.16;97772.25;3610695;78;107599;-89
2022/04/08 04:37:13;;;;;;;8.70;1.40;;;;;;;6.71;86.07;97796.03;3608835;78;98828;-88
2022/04/08 04:42:16;;;;;;;9.23;1.80;;;;;;;6.72;86.08;97805.77;3692706;78;98254;-87
2022/04/08 04:47:27;;;;;;;4.55;1.30;;;;;;;6.72;86.30;97813.36;3618796;78;98279;-90
2022/04/08 04:52:29;;;;;;;4.17;1.67;;;;;;;6.72;86.63;97822.17;3587596;78;99261;-88
2022/04/08 04:57:30;;;;;;;4.40;1.90;;;;;;;6.70;86.58;97833.51;3580665;79;98706;-88
2022/04/08 05:02:31;;;;;;;3.43;1.20;;;;;;;6.73;86.54;97847.73;3645471;78;98313;-87
2022/04/08 05:07:32;;;;;;;4.60;1.60;;;;;;;6.74;86.52;97842.44;3633050;78;98327;-86
2022/04/08 05:12:37;;;;;;;2.87;1.30;;;;;;;6.77;86.13;97873.63;3640334;77;98472;-89
2022/04/08 05:17:39;;;;;;;2.43;1.10;;;;;;;6.82;85.32;97874.53;3545997;79;98389;-88
2022/04/08 05:22:41;;;;;;;3.47;1.30;;;;;;;6.87;85.08;97885.00;3560456;78;98862;-87
2022/04/08 05:27:45;;;;;;;4.20;0.87;;;;;;;6.94;84.24;97890.36;3579474;77;98445;-91
2022/04/08 05:32:50;;;;;;;3.65;0.85;;;;;;;6.95;83.95;97897.36;3580835;78;98442;-86
2022/04/08 05:37:55;;;;;;;3.95;1.12;;;;;;;7.04;83.40;97910.69;3607728;78;99094;-90
2022/04/08 05:42:56;;;;;;;7.28;2.35;;;;;;;7.11;82.88;97935.80;3625057;78;98337;-87
2022/04/08 05:48:05;;;;;;;2.27;1.10;;;;;;;7.15;82.69;97944.11;3579668;78;98489;-90
2022/04/08 05:53:06;;;;;;;3.47;0.90;;;;;;;7.20;81.97;97948.36;3602546;79;98514;-92
2022/04/08 05:58:10;;;;;;;2.25;1.00;;;;;;;7.25;81.48;97967.80;3642942;78;98274;-90
2022/04/08 06:03:13;;;;;;;4.22;1.37;;;;;;;7.31;81.37;97979.06;3654379;78;98407;-89
2022/04/08 06:08:25;;;;;;;4.75;1.40;;;;;;;7.35;81.29;97998.33;3597855;78;98404;-91
2022/04/08 06:13:26;;;;;;;3.27;0.80;;;;;;;7.38;81.30;98004.94;3624545;78;98259;-87
2022/04/08 06:18:30;;;;;;;2.72;0.88;;;;;;;7.37;81.75;98015.09;3613429;78;99219;-90
2022/04/08 06:23:37;;;;;;;4.60;1.98;;;;;;;7.31;83.42;98039.25;3646148;78;98851;-89
2022/04/08 06:28:38;;;;;;;2.77;1.10;;;;;;;7.21;84.15;98034.70;3627944;78;98430;-88
2022/04/08 06:33:41;;;;;;;3.98;1.60;;;;;;;7.11;85.34;98057.48;3599280;79;98064;-93
2022/04/08 06:38:50;;;;;;;2.75;1.30;;;;;;;7.03;85.88;98072.45;3619440;78;98532;-89
2022/04/08 06:43:51;;;;;;;3.55;1.12;;;;;;;7.03;86.06;98076.55;3631727;78;98652;-87
2022/04/08 06:48:52;;;;;;;5.03;1.40;;;;;;;7.05;86.24;98079.64;3655102;78;98396;-88
2022/04/08 06:53:53;;;;;;;2.67;0.80;;;;;;;7.12;86.29;98085.02;3648936;77;98473;-88
2022/04/08 06:58:59;;;;;;;3.10;1.03;;;;;;;7.13;85.98;98096.92;3646220;78;98319;-88
2022/04/08 07:04:01;;;;;;;3.70;1.10;;;;;;;7.03;86.63;98107.39;3639209;78;98543;-85
2022/04/08 07:09:03;;;;;;;1.70;0.80;;;;;;;6.86;88.01;98119.31;3495452;81;104933;-88
2022/04/08 07:14:11;;;;;;;2.17;1.10;;;;;;;6.70;88.03;98136.10;3626669;78;108211;-85
2022/04/08 07:19:19;;;;;;;4.22;1.20;;;;;;;6.54;89.07;98139.97;3640618;78;98802;-86
2022/04/08 07:24:21;;;;;;;4.00;0.72;;;;;;;6.42;89.54;98161.73;3620041;78;98378;-89
2022/04/08 07:29:36;;;;;;;5.33;1.87;;;;;;;6.33;91.12;98187.96;3617556;78;98514;-90
2022/04/08 07:34:43;;;;;;;3.62;1.12;;;;;;;6.22;91.19;98192.73;3593849;78;98575;-88
2022/04/08 07:39:44;;;;;;;1.83;0.80;;;;;;;6.11;91.33;98211.15;3595115;78;98976;-86
2022/04/08 07:44:45;;;;;;;3.93;1.93;;;;;;;6.15;92.06;98219.49;3615512;78;98508;-86
2022/04/08 07:49:47;;;;;;;3.63;1.40;;;;;;;6.19;91.83;98236.64;3586120;78;98239;-85
2022/04/08 07:54:50;;;;;;;5.33;1.20;;;;;;;6.28;92.26;98251.20;3681194;78;98445;-91
2022/04/08 07:59:59;;;;;;;1.60;0.80;;;;;;;6.41;92.01;98255.00;3676776;78;100005;-88
2022/04/08 08:05:00;;;;;;;3.47;1.50;;;;;;;6.52;91.30;98267.42;3647773;78;99560;-84
2022/04/08 08:10:01;;;;;;;4.03;1.37;;;;;;;6.54;91.15;98275.98;3707152;78;98500;-87
2022/04/08 08:15:27;;;;;;;4.37;1.40;;;;;;;6.60;91.26;98287.27;3673640;78;98360;-88
2022/04/08 08:20:29;;;;;;;2.27;1.00;;;;;;;6.70;91.16;98302.21;3683451;78;98420;-88
2022/04/08 08:25:32;;;;;;;3.30;1.30;;;;;;;6.82;90.90;98316.75;3700809;78;97770;-90
2022/04/08 08:30:38;;;;;;;4.07;1.07;;;;;;;6.88;90.33;98321.97;3671868;78;98054;-89
2022/04/08 08:35:38;;;;;;;5.60;1.10;;;;;;;6.96;89.91;98337.16;3652761;78;98063;-89
2022/04/08 08:40:43;;;;;;;3.53;1.17;;;;;;;7.03;89.85;98334.36;3623320;79;98407;-87
2022/04/08 08:45:52;;;;;;;3.08;1.20;;;;;;;7.17;89.65;98341.66;3631156;79;98333;-89
2022/04/08 08:50:55;;;;;;;3.98;1.27;;;;;;;7.23;89.26;98349.03;3633413;79;97516;-86
2022/04/08 08:56:01;;;;;;;5.05;1.10;;;;;;;7.17;88.97;98362.97;3610199;78;98369;-90
2022/04/08 09:01:04;;;;;;;1.80;1.00;;;;;;;7.18;88.21;98369.98;3603723;80;32107;-87
2022/04/08 09:06:08;;;;;;;3.80;0.85;;;;;;;7.26;88.71;98371.47;3655508;79;98419;-87
2022/04/08 09:11:09;;;;;;;3.30;0.98;;;;;;;7.36;88.18;98385.64;3620739;79;98285;-86
2022/04/08 09:16:10;;;;;;;2.27;1.00;;;;;;;7.51;87.00;98387.66;3596292;79;98197;-85
2022/04/08 09:21:32;;;;;;;1.50;0.73;;;;;;;7.62;86.21;98390.48;3624161;77;98422;-86
2022/04/08 09:26:37;;;;;;;3.00;1.50;;;;;;;7.72;85.49;98391.56;3604669;79;98347;-84
2022/04/08 09:31:38;;;;;;;3.27;1.20;;;;;;;7.67;85.07;98427.58;3627389;79;33331;-85
2022/04/08 09:36:46;;;;;;;3.87;1.87;;;;;;;7.47;84.19;98435.59;3613807;79;98641;-85
2022/04/08 09:41:56;;;;;;;3.63;1.00;;;;;;;7.30;84.78;98448.82;3703535;78;98156;-85
2022/04/08 09:46:57;;;;;;;4.07;1.07;;;;;;;7.25;85.07;98444.39;3685227;78;98782;-86
2022/04/08 09:52:01;;;;;;;2.87;0.73;;;;;;;7.21;84.92;98455.33;3675700;78;98913;-84
2022/04/08 09:57:02;;;;;;;5.17;1.60;;;;;;;7.20;85.78;98450.28;3698991;78;98738;-85
2022/04/08 10:02:07;;;;;;;3.75;1.30;;;;;;;7.13;86.21;98457.94;3676337;78;98304;-86
2022/04/08 10:07:11;;;;;;;3.37;1.10;;;;;;;6.95;86.49;98496.94;3683675;78;100252;-91
2022/04/08 10:12:33;;;;;;;5.80;0.90;;;;;;;6.39;85.43;98497.77;3698916;78;98612;-89
2022/04/08 10:17:34;;;;;;;4.75;1.47;;;;;;;6.02;85.75;98502.93;3684851;78;98527;-85
2022/04/08 10:22:40;;;;;;;6.33;1.90;;;;;;;5.56;85.85;98479.75;3703460;77;98678;-82
2022/04/08 10:27:46;;;;;;;4.53;1.65;;;;;;;5.29;87.33;98486.76;3680875;78;98146;-83
2022/04/08 10:32:49;;;;;;;3.80;1.23;;;;;;;5.19;88.42;98456.77;3700749;78;98157;-84
2022/04/08 10:38:01;;;;;;;5.30;1.42;;;;;;;5.46;90.29;98460.67;3683688;78;98243;-83
2022/04/08 10:43:10;;;;;;;2.25;0.60;;;;;;;5.58;89.71;98456.17;3705397;77;98346;-83
2022/04/08 10:48:15;;;;;;;3.55;1.10;;;;;;;5.79;90.48;98458.88;3704587;78;98139;-82
2022/04/08 10:53:26;;;;;;;5.23;1.93;;;;;;;6.10;90.54;98462.14;3683409;78;97446;-85
2022/04/08 10:58:43;;;;;;;7.33;1.50;;;;;;;6.59;91.11;98469.58;3666119;78;98727;-83
2022/04/08 11:03:59;;;;;;;7.07;1.53;;;;;;;7.13;89.11;98457.94;3695076;78;28156;-86
2022/04/08 11:09:12;;;;;;;5.77;1.23;;;;;;;7.69;88.37;98463.56;3683891;78;98007;-85
2022/04/08 11:14:15;;;;;;;4.58;1.37;;;;;;;8.00;86.23;98457.77;3668555;79;98437;-82
2022/04/08 11:19:19;;;;;;;7.40;1.40;;;;;;;8.50;85.12;98473.11;3686578;78;98464;-84
2022/04/08 11:24:20;;;;;;;5.80;1.60;;;;;;;8.90;81.39;98472.95;3689844;79;98288;-85
2022/04/08 11:29:27;;;;;;;9.37;1.47;;;;;;;9.24;79.87;98487.38;3708346;78;98068;-83
2022/04/08 11:34:28;;;;;;;8.10;1.32;;;;;;;9.60;78.91;98491.73;3697916;78;99188;-83
2022/04/08 11:39:32;;;;;;;7.20;1.70;;;;;;;9.88;75.58;98495.38;3705799;77;26621;-85
2022/04/08 11:44:33;;;;;;;7.27;1.70;;;;;;;9.96;76.97;98487.97;3699247;78;98221;-85
2022/04/08 11:49:35;;;;;;;10.47;1.70;;;;;;;10.14;75.20;98497.31;3718304;78;98338;-84
2022/04/08 11:54:40;;;;;;;7.00;1.70;;;;;;;10.35;74.51;98503.80;3702593;78;98877;-86
2022/04/08 11:59:45;;;;;;;8.90;2.08;;;;;;;10.35;72.15;98496.92;3676873;78;99088;-85
2022/04/08 12:04:44;;;;;;;8.53;2.42;;;;;;;10.53;71.59;98483.59;3710595;77;99224;-87
2022/04/08 12:09:50;;;;;;;10.67;3.00;;;;;;;10.40;69.62;98502.70;3709279;78;28096;-86
2022/04/08 12:14:55;;;;;;;9.03;2.37;;;;;;;10.45;71.45;98499.45;3694541;78;98739;-86
2022/04/08 12:19:58;;;;;;;9.55;1.80;;;;;;;10.47;70.32;98482.54;3699236;77;98490;-86
2022/04/08 12:25:00;;;;;;;7.08;1.52;;;;;;;10.59;70.40;98481.91;3724086;77;98671;-86
2022/04/08 12:30:11;;;;;;;12.27;2.83;;;;;;;10.68;66.56;98494.50;3708217;78;98730;-88
2022/04/08 12:35:12;;;;;;;11.18;2.08;;;;;;;10.46;66.16;98496.88;3714480;78;98886;-84
2022/04/08 12:40:15;;;;;;;8.70;1.70;;;;;;;10.15;65.45;98504.36;3678222;77;98047;-84
2022/04/08 12:45:18;;;;;;;9.08;2.00;;;;;;;9.98;66.46;98503.42;3625012;79;98405;-86
2022/04/08 12:50:19;;;;;;;11.97;2.30;;;;;;;9.94;67.41;98501.36;3625252;79;98018;-83
2022/04/08 12:55:20;;;;;;;9.93;1.90;;;;;;;9.85;66.91;98486.59;3623466;79;98888;-88
2022/04/08 13:00:23;;;;;;;7.63;1.47;;;;;;;9.87;67.47;98493.83;3633142;79;98389;-86
2022/04/08 13:05:25;;;;;;;6.08;1.42;;;;;;;9.93;66.29;98490.78;3611147;79;98418;-83
2022/04/08 13:10:26;;;;;;;6.93;1.70;;;;;;;9.92;66.05;98487.25;3639676;79;98411;-87
2022/04/08 13:15:27;;;;;;;9.03;1.63;;;;;;;10.07;67.06;98488.59;3540895;79;98619;-86
2022/04/08 13:20:28;;;;;;;6.00;1.40;;;;;;;10.28;64.39;98473.08;3626013;79;98932;-85
2022/04/08 13:25:31;;;;;;;5.10;1.53;;;;;;;10.22;59.93;98473.98;3617652;79;98528;-86
2022/04/08 13:30:34;;;;;;;7.30;1.70;;;;;;;10.16;61.53;98472.33;3627693;79;98722;-87
2022/04/08 13:35:36;;;;;;;6.15;1.35;;;;;;;10.34;62.43;98460.39;3620412;78;98749;-87
2022/04/08 13:40:37;;;;;;;2.98;0.98;;;;;;;10.48;61.44;98444.21;3644934;78;98619;-88
2022/04/08 13:45:42;;;;;;;4.37;1.30;;;;;;;10.55;60.40;98441.31;3683400;78;98472;-89
2022/04/08 13:50:44;;;;;;;6.77;2.27;;;;;;;10.70;60.60;98439.82;3679738;77;98672;-90
2022/04/08 13:55:46;;;;;;;8.37;1.70;;;;;;;10.70;58.78;98435.11;3657788;78;98946;-86
2022/04/08 14:00:56;;;;;;;8.50;1.90;;;;;;;10.75;59.62;98433.82;3688379;78;99333;-87
2022/04/08 14:06:01;;;;;;;5.35;1.72;;;;;;;10.78;59.81;98446.13;3649378;78;98684;-88
2022/04/08 14:11:02;;;;;;;3.85;1.25;;;;;;;10.81;56.91;98445.87;3669903;78;99159;-84
2022/04/08 14:16:07;;;;;;;7.93;1.40;;;;;;;10.80;57.54;98453.95;3641272;78;98381;-92
2022/04/08 14:21:09;;;;;;;6.60;1.50;;;;;;;10.77;54.88;98446.54;3699538;78;98398;-88
2022/04/08 14:26:11;;;;;;;4.95;1.30;;;;;;;10.77;56.71;98449.30;3690549;78;98963;-85
2022/04/08 14:31:12;;;;;;;7.85;1.07;;;;;;;10.70;55.23;98452.20;3667923;78;98610;-85
2022/04/08 14:36:14;;;;;;;6.30;1.10;;;;;;;10.58;56.25;98461.86;3672187;78;98673;-84
2022/04/08 14:41:17;;;;;;;7.93;1.10;;;;;;;10.63;56.73;98461.37;3679907;77;98689;-86
2022/04/08 14:46:18;;;;;;;7.97;1.30;;;;;;;10.61;55.67;98451.41;3664283;77;98980;-85
2022/04/08 14:51:20;;;;;;;4.87;1.30;;;;;;;10.34;56.38;98437.61;3681400;78;98510;-89
2022/04/08 14:56:24;;;;;;;9.78;1.47;;;;;;;10.36;56.83;98460.73;3680606;77;98654;-93
2022/04/08 15:01:25;;;;;;;8.00;1.85;;;;;;;10.25;55.45;98471.78;3701393;78;98725;-88
2022/04/08 15:06:26;;;;;;;7.73;1.90;;;;;;;9.98;58.05;98490.30;3737845;77;98634;-85
2022/04/08 15:11:29;;;;;;;3.33;1.13;;;;;;;9.71;60.37;98466.25;3689141;77;98684;-87
2022/04/08 15:16:30;;;;;;;5.78;1.57;;;;;;;9.57;60.52;98462.34;3734044;77;98326;-88
2022/04/08 15:21:31;;;;;;;10.83;2.07;;;;;;;9.51;61.28;98457.94;3718650;77;26462;-85
2022/04/08 15:26:35;;;;;;;5.57;1.30;;;;;;;9.52;61.57;98472.43;3730444;77;98309;-87
2022/04/08 15:31:45;;;;;;;6.58;1.75;;;;;;;9.44;61.69;98481.98;3735259;78;98487;-85
2022/04/08 15:36:46;;;;;;;8.03;1.85;;;;;;;9.41;61.89;98486.33;3672422;78;98239;-85
2022/04/08 15:41:50;;;;;;;7.60;1.70;;;;;;;9.42;62.12;98489.26;3722625;78;98360;-87
2022/04/08 15:46:55;;;;;;;7.92;2.60;;;;;;;9.40;62.15;98493.02;3728377;78;98371;-93
2022/04/08 15:51:58;;;;;;;6.87;2.33;;;;;;;9.35;61.90;98498.19;3736341;78;34183;-93
2022/04/08 15:57:01;;;;;;;4.17;1.17;;;;;;;9.26;60.92;98486.98;3704626;78;98289;-86
2022/04/08 16:02:04;;;;;;;5.47;1.67;;;;;;;9.14;59.94;98485.56;3707617;78;98230;-87
2022/04/08 16:07:05;;;;;;;4.15;1.30;;;;;;;9.02;58.84;98490.83;3729148;78;98597;-89
2022/04/08 16:12:08;;;;;;;8.73;3.50;;;;;;;8.94;59.31;98482.53;3673770;78;98741;-86
2022/04/08 16:17:09;;;;;;;17.27;5.33;;;;;;;8.92;59.08;98484.89;3728645;78;98200;-87
2022/04/08 16:22:10;;;;;;;11.37;2.87;;;;;;;8.90;59.48;98478.44;3746951;78;26944;-83
2022/04/08 16:27:13;;;;;;;9.27;2.77;;;;;;;8.90;59.90;98474.32;3728665;78;98707;-87
2022/04/08 16:32:14;;;;;;;13.33;4.30;;;;;;;8.86;59.93;98469.50;3688734;78;98226;-87
2022/04/08 16:37:15;;;;;;;28.38;11.25;;;;;;;8.85;60.44;98469.33;3722015;78;98504;-87
2022/04/08 16:42:17;;;;;;;36.30;14.63;;;;;;;8.85;60.71;98471.28;3730783;78;98639;-87
2022/04/08 16:47:18;;;;;;;34.77;17.00;;;;;;;8.80;61.27;98471.73;3745154;77;99344;-86
2022/04/08 16:52:19;;;;;;;12.97;5.90;;;;;;;8.77;61.58;98458.25;3728549;78;25879;-87
2022/04/08 16:57:20;;;;;;;20.07;6.87;;;;;;;8.74;61.71;98463.20;3729964;77;98482;-86
2022/04/08 17:02:21;;;;;;;20.20;7.57;;;;;;;8.68;62.30;98464.82;3750081;78;98419;-86
2022/04/08 17:07:22;;;;;;;24.13;6.47;;;;;;;8.66;62.76;98464.47;3750267;77;98624;-87
2022/04/08 17:12:24;;;;;;;10.90;4.40;;;;;;;8.59;62.77;98470.63;3746288;77;98490;-87
2022/04/08 17:17:25;;;;;;;17.93;7.17;;;;;;;8.50;63.60;98472.50;3727128;77;98374;-87
2022/04/08 17:22:26;;;;;;;14.63;7.40;;;;;;;8.46;63.87;98466.89;3744280;78;32570;-86
2022/04/08 17:27:27;;;;;;;13.43;6.80;;;;;;;8.33;64.03;98472.70;3730483;78;98195;-86
2022/04/08 17:32:32;;;;;;;10.83;3.60;;;;;;;8.22;64.43;98473.41;3675744;78;98341;-87
2022/04/08 17:37:33;;;;;;;9.28;3.05;;;;;;;8.11;64.96;98484.47;3729225;77;98766;-87
2022/04/08 17:42:35;;;;;;;8.53;3.63;;;;;;;7.99;65.39;98490.45;3750579;78;98394;-87
2022/04/08 17:47:38;;;;;;;12.47;3.95;;;;;;;7.92;65.83;98491.11;3693333;78;98216;-87
2022/04/08 17:52:41;;;;;;;14.78;6.00;;;;;;;7.85;66.26;98479.63;3725247;78;98506;-86
2022/04/08 17:57:43;;;;;;;12.20;4.97;;;;;;;7.77;66.43;98478.15;3745098;78;98587;-87
2022/04/08 18:02:46;;;;;;;13.70;6.08;;;;;;;7.68;66.67;98478.44;3753994;78;98245;-87
2022/04/08 18:07:47;;;;;;;10.13;4.80;;;;;;;7.60;66.92;98481.03;3703762;78;98523;-85
2022/04/08 18:12:48;;;;;;;12.90;6.00;;;;;;;7.54;67.37;98485.39;3727978;78;98404;-86
2022/04/08 18:17:49;;;;;;;13.80;5.60;;;;;;;7.47;67.58;98479.98;3714764;78;98437;-87
2022/04/08 18:22:50;;;;;;;16.13;5.90;;;;;;;7.42;67.89;98480.41;3723403;78;98388;-86
2022/04/08 18:27:51;;;;;;;15.17;5.37;;;;;;;7.33;68.02;98476.76;3738090;78;98041;-87
2022/04/08 18:33:18;;;;;;;12.83;5.40;;;;;;;7.24;67.83;98494.78;3720538;78;98363;-87
2022/04/08 18:38:39;;;;;;;15.25;5.47;;;;;;;7.15;67.71;98489.00;3506630;79;98359;-87
2022/04/08 18:43:49;;;;;;;17.40;8.00;;;;;;;7.06;69.05;98483.98;3719981;77;98540;-87
2022/04/08 18:48:56;;;;;;;23.83;10.13;;;;;;;6.98;69.65;98487.92;3693241;78;99195;-88
2022/04/08 18:53:57;;;;;;;29.45;13.05;;;;;;;6.89;70.25;98489.54;3736528;78;98744;-88
2022/04/08 18:59:00;;;;;;;38.70;16.20;;;;;;;6.80;70.89;98478.25;3699345;78;98741;-88
2022/04/08 19:04:07;;;;;;;40.97;20.70;;;;;;;6.70;71.25;98477.74;3729281;78;98529;-87
2022/04/08 19:09:16;;;;;;;45.55;19.32;;;;;;;6.65;71.03;98478.16;3734841;78;98481;-88
2022/04/08 19:15:09;;;;;;;36.30;16.83;;;;;;;6.54;70.80;98480.91;3722984;78;26665;-87
2022/04/08 19:20:21;;;;;;;35.58;17.65;;;;;;;6.42;71.06;98471.02;3510369;82;98672;-87
2022/04/08 19:26:00;;;;;;;;;;;;;;;;;;;;;
2022/04/08 19:31:10;;;;;;;37.40;17.80;;;;;;;6.04;72.03;98444.61;3250652;87;98845;-86
2022/04/08 19:36:18;;;;;;;36.77;16.57;;;;;;;5.97;72.59;98463.74;3571368;79;98658;-88
2022/04/08 19:41:59;;;;;;;;;;;;;;;;;;;;;
2022/04/08 19:46:44;;;;;;;36.67;17.70;;;;;;;5.64;73.22;98462.22;3680289;77;98888;-86
2022/04/08 19:51:45;;;;;;;40.00;21.00;;;;;;;5.54;73.64;98471.76;3733839;78;98659;-86
2022/04/08 19:56:46;;;;;;;39.67;19.83;;;;;;;5.42;74.09;98457.95;3739554;78;98597;-86
2022/04/08 20:01:48;;;;;;;61.07;28.63;;;;;;;5.28;74.36;98448.39;3727397;78;98707;-86
2022/04/08 20:06:49;;;;;;;69.10;30.30;;;;;;;5.15;74.69;98442.34;3728048;78;98648;-86
2022/04/08 20:11:50;;;;;;;67.00;29.87;;;;;;;5.04;75.01;98437.47;3737253;78;30668;-86
2022/04/08 20:16:51;;;;;;;70.50;30.07;;;;;;;4.86;75.21;98431.23;3699601;78;98588;-87
2022/04/08 20:21:53;;;;;;;52.97;25.33;;;;;;;4.77;75.67;98427.52;3751784;78;98617;-87
2022/04/08 20:26:54;;;;;;;54.97;25.07;;;;;;;4.65;75.85;98412.11;3724170;78;98424;-86
2022/04/08 20:31:56;;;;;;;45.50;21.50;;;;;;;4.52;75.97;98416.34;3746081;78;98578;-87
2022/04/08 20:36:57;;;;;;;51.03;22.73;;;;;;;4.39;76.02;98413.78;3706071;78;98599;-87
2022/04/08 20:41:58;;;;;;;55.97;24.33;;;;;;;4.27;76.61;98413.54;3711751;78;33087;-86
2022/04/08 20:47:00;;;;;;;43.80;21.63;;;;;;;4.17;77.12;98406.71;3750190;77;98292;-87
2022/04/08 20:52:01;;;;;;;51.97;21.50;;;;;;;4.05;77.27;98397.53;3730969;78;98440;-86
2022/04/08 20:57:03;;;;;;;44.67;21.35;;;;;;;3.92;76.94;98400.37;3708598;78;98805;-87
2022/04/08 21:02:04;;;;;;;42.80;20.03;;;;;;;3.84;77.81;98400.15;3714329;78;98619;-87
2022/04/08 21:07:05;;;;;;;56.30;24.67;;;;;;;3.61;77.75;98408.56;3712873;78;98652;-88
2022/04/08 21:12:08;;;;;;;50.03;23.57;;;;;;;3.50;78.42;98408.31;3731447;78;26496;-88
2022/04/08 21:17:12;;;;;;;50.53;23.47;;;;;;;3.43;78.73;98406.88;3713574;78;98899;-86
2022/04/08 21:22:13;;;;;;;46.53;23.52;;;;;;;3.33;78.88;98398.87;3712484;78;98486;-85
2022/04/08 21:27:15;;;;;;;42.03;21.77;;;;;;;3.26;79.29;98394.75;3697323;78;98783;-86
2022/04/08 21:32:16;;;;;;;47.07;22.37;;;;;;;3.18;79.35;98395.84;3722327;78;98592;-86
2022/04/08 21:37:16;;;;;;;46.83;22.30;;;;;;;3.12;79.54;98395.23;3743777;78;98551;-86
2022/04/08 21:42:18;;;;;;;44.50;21.77;;;;;;;3.02;80.11;98384.48;3733064;78;32963;-86
2022/04/08 21:47:20;;;;;;;42.20;22.60;;;;;;;2.92;80.10;98390.61;3708536;78;98870;-85
2022/04/08 21:52:25;;;;;;;43.23;22.37;;;;;;;2.84;80.10;98396.36;3741694;78;98508;-86
2022/04/08 21:57:31;;;;;;;48.38;24.27;;;;;;;2.79;80.69;98392.02;3674952;78;98710;-86
2022/04/08 22:02:37;;;;;;;40.63;22.58;;;;;;;2.73;81.11;98397.60;3751762;78;99089;-86
2022/04/08 22:07:38;;;;;;;49.30;22.73;;;;;;;2.67;80.82;98399.09;3651938;78;99640;-86
2022/04/08 22:12:39;;;;;;;47.30;22.67;;;;;;;2.61;81.25;98401.16;3721762;78;98655;-87
2022/04/08 22:17:40;;;;;;;43.27;21.27;;;;;;;2.47;81.54;98405.87;3718930;78;98256;-87
2022/04/08 22:22:42;;;;;;;45.97;23.47;;;;;;;2.34;81.76;98392.36;3693452;78;99104;-87
2022/04/08 22:27:42;;;;;;;45.87;22.77;;;;;;;2.35;82.29;98409.44;3690535;78;98594;-87
2022/04/08 22:32:43;;;;;;;49.93;24.87;;;;;;;2.28;82.43;98413.41;3720828;78;98600;-87
2022/04/08 22:37:45;;;;;;;48.63;24.70;;;;;;;2.23;82.36;98407.75;3732164;78;98659;-87
2022/04/08 22:42:46;;;;;;;55.17;25.77;;;;;;;2.18;82.65;98408.67;3743989;78;98721;-87
2022/04/08 22:47:47;;;;;;;53.77;27.13;;;;;;;2.14;83.05;98407.84;3733002;78;98927;-87
2022/04/08 22:52:48;;;;;;;52.20;25.07;;;;;;;2.05;83.01;98405.41;3742567;78;98390;-87
2022/04/08 22:57:49;;;;;;;49.93;24.00;;;;;;;1.95;83.97;98387.64;3724166;78;98657;-87
2022/04/08 23:02:50;;;;;;;52.37;26.77;;;;;;;1.90;84.03;98398.25;3743574;78;98945;-87
2022/04/08 23:07:51;;;;;;;52.00;25.37;;;;;;;1.85;83.75;98394.50;3727177;78;98986;-88
2022/04/08 23:12:52;;;;;;;52.30;24.87;;;;;;;1.80;84.12;98388.05;3749083;78;98633;-87
2022/04/08 23:17:53;;;;;;;55.33;27.52;;;;;;;1.74;84.07;98398.22;3749079;78;98170;-86
2022/04/08 23:22:54;;;;;;;51.97;23.27;;;;;;;1.71;84.36;98394.30;3740315;78;98605;-86
2022/04/08 23:27:55;;;;;;;43.37;21.60;;;;;;;1.65;84.10;98386.30;3716201;78;98638;-87
2022/04/08 23:32:56;;;;;;;53.90;24.17;;;;;;;1.62;84.19;98388.95;3716088;78;98592;-87
2022/04/08 23:37:57;;;;;;;49.03;22.60;;;;;;;1.54;84.52;98382.66;3738605;78;98686;-87
2022/04/08 23:42:58;;;;;;;48.00;22.30;;;;;;;1.48;84.91;98394.20;3734272;78;98862;-87
2022/04/08 23:47:59;;;;;;;43.77;22.83;;;;;;;1.36;85.11;98376.22;3752876;78;98359;-87
2022/04/08 23:53:00;;;;;;;50.33;25.17;;;;;;;1.29;85.25;98386.17;3723452;78;98458;-87
2022/04/08 23:58:03;;;;;;;46.83;25.10;;;;;;;1.22;85.40;98381.42;3715419;78;98503;-87
